Terminal Aerodrome Forecast
Issued by NWS Nashville, TN

Home | Current Version | Previous Version | Text Only | Print | Product List | Glossary On
Versions: 1 2 3 4 5 6 7 8 9 10 11 12 13 14
037
FTUS44 KOHX 221126
TAFBNA
TAF
KBNA 221126Z 2212/2312 22006KT P6SM SKC
     FM221800 22007G15KT P6SM SCT040=

USA.gov is the U.S. government's official web portal to all federal, state and local government web resources and services.